createdAt,value
2019-03-05T00:08:10.274Z,9.17
2019-03-05T00:10:59.159Z,7.37
2019-03-05T00:13:48.108Z,7.20
2019-03-05T00:16:36.984Z,12.93
2019-03-05T00:19:25.848Z,10.17
2019-03-05T00:22:07.880Z,15.70
2019-03-05T00:25:35.368Z,17.73
2019-03-05T00:29:02.871Z,8.60
2019-03-05T00:31:51.687Z,15.90
2019-03-05T00:35:08.824Z,5.80
2019-03-05T00:38:18.525Z,6.90
2019-03-05T00:41:28.247Z,9.83
2019-03-05T00:44:55.730Z,7.30
2019-03-05T00:48:05.504Z,12.63
2019-03-05T00:51:33.008Z,12.37
2019-03-05T00:54:43.121Z,19.60
2019-03-05T00:57:52.825Z,10.63
2019-03-05T01:01:20.330Z,16.67
2019-03-05T01:04:30.034Z,12.80
2019-03-05T01:07:37.952Z,11.00
2019-03-05T01:19:17.995Z,12.50
2019-03-05T01:21:59.311Z,9.67
2019-03-05T01:24:48.123Z,12.37
2019-03-05T01:27:36.915Z,16.80
2019-03-05T01:31:04.073Z,7.87
2019-03-05T01:34:11.901Z,13.57
2019-03-05T01:40:15.337Z,20.30
2019-03-05T01:43:04.268Z,15.00
2019-03-05T01:45:53.082Z,14.68
2019-03-05T01:48:41.878Z,14.60
2019-03-05T01:51:30.692Z,13.10
2019-03-05T01:54:19.491Z,13.47
2019-03-05T01:57:08.300Z,20.60
2019-03-05T01:59:57.118Z,10.37
2019-03-05T02:02:45.984Z,11.87
2019-03-05T02:05:34.870Z,10.33
2019-03-05T02:08:23.662Z,12.43
2019-03-05T02:11:31.574Z,8.53
2019-03-05T02:14:20.434Z,15.93
2019-03-05T02:17:09.252Z,16.37
2019-03-05T02:19:58.055Z,13.35
2019-03-05T02:22:40.253Z,13.00
2019-03-05T02:26:07.740Z,9.60
2019-03-05T02:28:59.912Z,9.97
2019-03-05T02:32:27.377Z,12.37
2019-03-05T02:35:54.862Z,6.10
2019-03-05T02:39:22.353Z,5.67
2019-03-05T02:42:49.855Z,7.63
2019-03-05T02:45:59.599Z,9.33
2019-03-05T02:49:09.322Z,7.47
2019-03-05T02:52:19.024Z,8.67
2019-03-05T02:55:46.551Z,9.77
2019-03-05T02:58:34.288Z,7.17
2019-03-05T03:01:42.132Z,9.00
2019-03-05T03:04:49.946Z,21.10
2019-03-05T03:07:38.834Z,15.27
2019-03-05T03:10:27.634Z,7.03
2019-03-05T03:13:35.463Z,5.67
2019-03-05T03:16:24.257Z,10.27
2019-03-05T03:19:13.079Z,10.47
2019-03-05T03:21:54.861Z,6.10
2019-03-05T03:24:43.677Z,6.93
2019-03-05T03:27:51.500Z,10.53
2019-03-05T03:30:40.327Z,5.13
2019-03-05T03:33:29.117Z,6.70
2019-03-05T03:36:17.923Z,11.50
2019-03-05T03:39:06.743Z,7.87
2019-03-05T03:41:55.544Z,7.63
2019-03-05T03:44:44.352Z,9.20
2019-03-05T03:47:33.142Z,13.30
2019-03-05T03:50:21.951Z,8.57
2019-03-05T03:53:10.743Z,11.03
2019-03-05T03:55:59.556Z,6.60
2019-03-05T03:58:48.344Z,10.40
2019-03-05T04:01:37.165Z,12.20
2019-03-05T04:04:26.034Z,23.12
2019-03-05T04:07:14.850Z,9.73
2019-03-05T04:13:19.284Z,7.43
2019-03-05T04:16:08.084Z,17.90
2019-03-05T04:21:49.286Z,9.00
2019-03-05T04:24:38.083Z,9.13
2019-03-05T04:27:26.903Z,11.83
2019-03-05T04:30:16.051Z,6.23
2019-03-05T04:33:04.937Z,5.97
2019-03-05T04:35:53.754Z,15.90
2019-03-05T04:38:42.556Z,5.60
2019-03-05T04:41:31.371Z,15.77
2019-03-05T04:47:29.572Z,9.40
2019-03-05T04:53:27.765Z,11.63
2019-03-05T04:56:16.576Z,12.50
2019-03-05T04:59:05.398Z,15.27
2019-03-05T05:01:54.198Z,8.07
2019-03-05T05:04:43.011Z,6.92
2019-03-05T05:07:31.804Z,9.20
2019-03-05T05:10:20.623Z,14.10
2019-03-05T05:13:09.432Z,8.13
2019-03-05T05:15:58.227Z,8.93
2019-03-05T05:18:47.041Z,10.57
2019-03-05T05:21:35.847Z,9.43
2019-03-05T05:24:24.646Z,20.80
2019-03-05T05:27:13.455Z,9.77
2019-03-05T05:30:02.275Z,6.72
2019-03-05T05:32:51.064Z,8.40
2019-03-05T05:35:39.883Z,12.63
2019-03-05T05:38:28.698Z,12.27
2019-03-05T05:41:17.491Z,12.17
2019-03-05T05:44:06.306Z,4.13
2019-03-05T05:46:55.121Z,10.97
2019-03-05T05:49:43.917Z,10.73
2019-03-05T05:52:32.726Z,9.90
2019-03-05T05:55:21.526Z,11.80
2019-03-05T05:58:10.399Z,7.73
2019-03-05T06:04:08.593Z,10.90
2019-03-05T06:06:57.392Z,7.83
2019-03-05T06:09:46.207Z,7.83
2019-03-05T06:12:35.001Z,12.97
2019-03-05T06:15:23.822Z,19.33
2019-03-05T06:18:12.612Z,9.43
2019-03-05T06:20:54.674Z,8.17
2019-03-05T06:23:43.477Z,10.60
2019-03-05T06:26:32.283Z,12.03
2019-03-05T06:29:21.074Z,8.57
2019-03-05T06:32:09.964Z,16.70
2019-03-05T06:34:58.782Z,8.60
2019-03-05T06:37:47.582Z,5.60
2019-03-05T06:40:36.389Z,14.00
2019-03-05T06:43:25.188Z,7.23
2019-03-05T06:46:14.008Z,12.90
2019-03-05T06:49:02.807Z,11.63
2019-03-05T06:51:51.621Z,11.30
2019-03-05T06:54:40.415Z,11.57
2019-03-05T06:57:29.227Z,14.00
2019-03-05T07:03:48.329Z,8.00
2019-03-05T07:06:56.723Z,6.20
2019-03-05T07:10:06.414Z,10.63
2019-03-05T07:13:16.210Z,6.13
2019-03-05T07:16:25.980Z,11.53
2019-03-05T07:19:14.843Z,10.43
2019-03-05T07:22:24.196Z,11.20
2019-03-05T07:25:12.991Z,12.87
2019-03-05T07:28:01.810Z,12.33
2019-03-05T07:30:50.604Z,6.60
2019-03-05T07:33:39.422Z,6.50
2019-03-05T07:36:28.214Z,12.37
2019-03-05T07:39:36.349Z,9.60
2019-03-05T07:42:25.140Z,6.60
2019-03-05T07:48:29.755Z,8.87
2019-03-05T07:51:19.546Z,8.80
2019-03-05T07:54:27.394Z,8.10
2019-03-05T07:57:16.203Z,7.47
2019-03-05T08:00:25.906Z,6.93
2019-03-05T08:03:14.720Z,14.10
2019-03-05T08:06:03.537Z,6.30
2019-03-05T08:09:31.029Z,9.80
2019-03-05T08:12:58.576Z,12.30
2019-03-05T08:16:27.271Z,7.97
2019-03-05T08:19:35.107Z,12.70
2019-03-05T08:22:16.994Z,11.77
2019-03-05T08:25:26.706Z,8.60
2019-03-05T08:28:15.504Z,6.27
2019-03-05T08:31:04.317Z,8.90
2019-03-05T08:33:53.153Z,7.43
2019-03-05T08:36:41.957Z,5.60
2019-03-05T08:39:30.754Z,8.60
2019-03-05T08:42:19.569Z,10.93
2019-03-05T08:45:29.866Z,11.17
2019-03-05T08:48:19.805Z,10.90
2019-03-05T08:51:08.601Z,11.67
2019-03-05T08:53:57.434Z,10.57
2019-03-05T08:56:46.217Z,10.50
2019-03-05T08:59:35.042Z,15.20
2019-03-05T09:02:23.895Z,12.60
2019-03-05T09:08:28.304Z,9.33
2019-03-05T09:11:17.095Z,12.50
2019-03-05T09:14:06.185Z,10.63
2019-03-05T09:16:54.972Z,7.90
2019-03-05T09:19:43.787Z,9.37
2019-03-05T09:22:25.379Z,12.00
2019-03-05T09:25:35.133Z,8.67
2019-03-05T09:28:24.043Z,6.83
2019-03-05T09:31:12.870Z,6.53
2019-03-05T09:34:01.685Z,9.00
2019-03-05T09:36:51.487Z,6.30
2019-03-05T09:39:41.321Z,7.00
2019-03-05T09:42:39.542Z,9.97
2019-03-05T09:45:21.341Z,7.93
2019-03-05T09:48:29.177Z,8.87
2019-03-05T09:51:17.973Z,6.47
2019-03-05T09:54:25.998Z,7.30
2019-03-05T09:57:14.768Z,8.10
2019-03-05T10:03:18.531Z,9.40
2019-03-05T10:06:08.784Z,3.50
2019-03-05T10:08:57.593Z,7.33
2019-03-05T10:15:35.710Z,7.77
2019-03-05T10:18:24.513Z,13.13
2019-03-05T10:21:13.328Z,8.60
2019-03-05T10:23:55.472Z,17.90
2019-03-05T10:26:44.287Z,10.50
2019-03-05T10:29:33.151Z,7.20
2019-03-05T10:32:22.030Z,9.60
2019-03-05T10:35:10.892Z,5.87
2019-03-05T10:38:20.646Z,11.23
2019-03-05T10:41:09.520Z,6.10
2019-03-05T10:46:52.344Z,10.33
2019-03-05T10:49:41.157Z,6.13
2019-03-05T10:52:29.980Z,8.40
2019-03-05T10:55:26.401Z,14.40
2019-03-05T11:07:15.052Z,7.60
2019-03-05T11:13:18.871Z,5.40
2019-03-05T11:16:07.966Z,9.10
2019-03-05T11:18:56.765Z,8.90
2019-03-05T11:21:45.585Z,10.20
2019-03-05T11:24:27.218Z,24.30
2019-03-05T11:27:16.028Z,5.33
2019-03-05T11:33:35.123Z,6.27
2019-03-05T11:36:24.185Z,9.07
2019-03-05T11:42:08.899Z,6.63
2019-03-05T11:45:16.735Z,6.53
2019-03-05T11:51:13.453Z,9.45
2019-03-05T11:54:02.270Z,6.80
2019-03-05T11:56:51.061Z,8.10
2019-03-05T11:59:39.882Z,14.33
2019-03-05T12:02:47.779Z,6.70
2019-03-05T12:05:36.663Z,6.00
2019-03-05T12:08:25.460Z,8.00
2019-03-05T12:11:14.282Z,10.58
2019-03-05T12:13:55.762Z,7.40
2019-03-05T12:16:44.635Z,8.80
2019-03-05T12:19:33.452Z,10.50
2019-03-05T12:22:22.265Z,8.80
2019-03-05T12:25:30.389Z,8.13
2019-03-05T12:28:19.206Z,10.90
2019-03-05T12:31:08.073Z,7.30
2019-03-05T12:33:56.888Z,4.80
2019-03-05T12:36:45.696Z,4.27
2019-03-05T12:39:34.502Z,8.37
2019-03-05T12:42:23.316Z,7.07
2019-03-05T12:45:33.019Z,12.67
2019-03-05T12:48:21.828Z,9.63
2019-03-05T12:54:20.023Z,15.77
2019-03-05T12:57:08.826Z,9.47
2019-03-05T12:59:57.636Z,11.53
2019-03-05T13:02:46.431Z,5.30
2019-03-05T13:05:35.248Z,9.70
2019-03-05T13:08:24.037Z,10.13
2019-03-05T13:11:14.240Z,8.10
2019-03-05T13:14:07.264Z,10.30
2019-03-05T13:16:47.276Z,8.77
2019-03-05T13:19:38.650Z,7.80
2019-03-05T13:22:28.904Z,10.40
2019-03-05T13:25:38.237Z,12.23
2019-03-05T13:28:26.967Z,13.07
2019-03-05T13:31:15.769Z,9.80
2019-03-05T13:34:04.584Z,9.93
2019-03-05T13:36:53.376Z,10.30
2019-03-05T13:39:42.196Z,5.07
2019-03-05T13:42:33.309Z,8.83
2019-03-05T13:48:58.672Z,9.67
2019-03-05T13:52:26.495Z,7.40
2019-03-05T13:55:54.002Z,12.10
2019-03-05T13:59:03.703Z,9.03
2019-03-05T14:05:28.662Z,19.20
2019-03-05T14:08:56.151Z,14.20
2019-03-05T14:11:37.922Z,8.17
2019-03-05T14:14:47.991Z,25.70
2019-03-05T14:20:46.268Z,13.30
2019-03-05T14:23:35.036Z,12.63
2019-03-05T14:26:42.873Z,10.90
2019-03-05T14:29:32.006Z,27.20
2019-03-05T14:35:34.873Z,51.20
2019-03-05T14:38:23.715Z,12.73
2019-03-05T14:41:12.596Z,12.57
2019-03-05T14:44:01.409Z,8.10
2019-03-05T14:47:11.109Z,71.03
2019-03-05T14:49:59.925Z,14.23
2019-03-05T14:52:48.724Z,11.23
2019-03-05T14:55:37.551Z,12.93
2019-03-05T14:58:26.348Z,11.20
2019-03-05T15:01:15.165Z,9.70
2019-03-05T15:04:03.978Z,11.30
2019-03-05T15:06:52.802Z,7.90
2019-03-05T15:09:41.593Z,13.33
2019-03-05T15:12:23.595Z,7.50
2019-03-05T15:15:31.998Z,9.33
2019-03-05T15:18:20.883Z,8.63
2019-03-05T15:21:09.701Z,6.83
2019-03-05T15:23:58.583Z,9.20
2019-03-05T15:26:49.015Z,6.47
2019-03-05T15:29:37.891Z,4.70
2019-03-05T15:32:26.805Z,9.30
2019-03-05T15:38:45.696Z,6.33
2019-03-05T15:41:34.664Z,8.33
2019-03-05T15:44:23.462Z,7.60
2019-03-05T15:47:12.326Z,9.77
2019-03-05T15:52:55.118Z,9.43
2019-03-05T15:55:43.992Z,5.20
2019-03-05T15:58:32.841Z,15.43
2019-03-05T16:01:22.669Z,5.53
2019-03-05T16:04:12.173Z,4.90
2019-03-05T16:07:00.991Z,8.30
2019-03-05T16:09:50.963Z,7.20
2019-03-05T16:12:42.591Z,9.03
2019-03-05T16:15:24.111Z,8.13
2019-03-05T16:18:12.927Z,8.47
2019-03-05T16:21:02.467Z,7.00
2019-03-05T16:23:52.388Z,7.17
2019-03-05T16:29:52.042Z,5.77
2019-03-05T16:36:08.013Z,6.00
2019-03-05T16:39:15.835Z,8.77
2019-03-05T16:42:23.679Z,4.83
2019-03-05T16:45:31.565Z,6.93
2019-03-05T16:48:20.143Z,11.70
2019-03-05T16:51:03.757Z,6.90
2019-03-05T16:54:11.604Z,10.60
2019-03-05T16:57:19.431Z,12.97
2019-03-05T17:00:49.189Z,12.73
2019-03-05T17:03:57.743Z,9.77
2019-03-05T17:07:05.583Z,12.33
2019-03-05T17:13:03.837Z,10.77
2019-03-05T17:15:45.591Z,12.80
2019-03-05T17:18:34.404Z,9.40
2019-03-05T17:21:27.441Z,10.37
2019-03-05T17:24:13.804Z,14.30
2019-03-05T17:27:02.692Z,9.33
2019-03-05T17:29:51.505Z,6.70
2019-03-05T17:32:40.310Z,18.20
2019-03-05T17:35:29.215Z,10.03
2019-03-05T17:38:18.035Z,13.53
2019-03-05T17:41:07.066Z,13.03
2019-03-05T17:43:55.885Z,10.67
2019-03-05T17:46:44.743Z,13.27
2019-03-05T17:49:33.565Z,20.87
2019-03-05T17:52:13.370Z,16.93
2019-03-05T17:55:02.178Z,13.80
2019-03-05T17:57:51.269Z,12.67
2019-03-05T18:03:49.466Z,16.40
2019-03-05T18:06:38.264Z,19.80
2019-03-05T18:09:27.080Z,27.40
2019-03-05T18:12:15.879Z,23.07
2019-03-05T18:14:58.450Z,23.90
2019-03-05T18:17:47.320Z,23.37
2019-03-05T18:20:55.166Z,32.60
2019-03-05T18:23:43.979Z,22.60
2019-03-05T18:26:34.493Z,26.73
2019-03-05T18:29:23.310Z,26.63
2019-03-05T18:32:13.824Z,20.90
2019-03-05T18:35:02.658Z,30.80
2019-03-05T18:37:51.604Z,26.00
2019-03-05T18:40:40.396Z,34.53
2019-03-05T18:43:29.216Z,27.53
2019-03-05T18:46:37.036Z,28.53
2019-03-05T18:49:25.925Z,34.20
2019-03-05T18:52:07.220Z,28.93
2019-03-05T18:54:56.036Z,31.57
2019-03-05T18:57:44.898Z,31.80
2019-03-05T19:03:49.201Z,31.73
2019-03-05T19:06:37.991Z,31.13
2019-03-05T19:09:26.812Z,28.97
2019-03-05T19:12:15.626Z,23.00
2019-03-05T19:14:55.407Z,22.53
2019-03-05T19:17:44.224Z,17.87
2019-03-05T19:23:40.945Z,18.30
2019-03-05T19:26:29.977Z,37.50
2019-03-05T19:29:37.822Z,40.57
2019-03-05T19:32:26.938Z,30.30
2019-03-05T19:35:17.547Z,52.37
2019-03-05T19:38:06.417Z,36.60
2019-03-05T19:40:56.952Z,21.00
2019-03-05T19:43:45.747Z,19.40
2019-03-05T19:46:36.286Z,21.40
2019-03-05T19:49:25.100Z,28.33
2019-03-05T19:52:08.598Z,27.37
2019-03-05T19:54:57.424Z,26.67
2019-03-05T19:58:05.491Z,28.67
2019-03-05T20:01:13.403Z,36.60
2019-03-05T20:07:10.075Z,19.40
2019-03-05T20:10:17.946Z,22.47
2019-03-05T20:13:06.729Z,21.00
2019-03-05T20:15:55.549Z,20.47
2019-03-05T20:18:44.342Z,19.40
2019-03-05T20:21:33.157Z,19.93
2019-03-05T20:24:21.977Z,29.73
2019-03-05T20:27:16.019Z,20.40
2019-03-05T20:30:01.311Z,24.07
2019-03-05T20:36:18.518Z,60.90
2019-03-05T20:39:07.389Z,41.83
2019-03-05T20:41:56.241Z,19.67
2019-03-05T20:44:45.062Z,18.50
2019-03-05T20:47:33.855Z,22.80
2019-03-05T20:50:22.671Z,17.63
2019-03-05T20:53:06.486Z,23.13
2019-03-05T20:59:03.048Z,33.83
2019-03-05T21:01:51.848Z,31.23
2019-03-05T21:04:40.673Z,37.80
2019-03-05T21:07:29.470Z,36.57
2019-03-05T21:10:18.455Z,31.40
2019-03-05T21:13:07.571Z,29.20
2019-03-05T21:15:48.829Z,42.77
2019-03-05T21:18:37.979Z,25.50
2019-03-05T21:21:26.777Z,24.67
2019-03-05T21:24:15.597Z,25.30
2019-03-05T21:27:04.389Z,29.43
2019-03-05T21:29:53.203Z,28.30
2019-03-05T21:38:24.562Z,40.80
2019-03-05T21:41:13.384Z,34.80
2019-03-05T21:44:02.182Z,34.57
2019-03-05T21:46:50.987Z,36.70
2019-03-05T21:52:33.862Z,29.87
2019-03-05T21:55:22.751Z,26.20
2019-03-05T21:58:11.577Z,25.10
2019-03-05T22:01:00.375Z,31.33
2019-03-05T22:03:49.495Z,33.50
2019-03-05T22:06:38.293Z,32.30
2019-03-05T22:09:46.128Z,34.73
2019-03-05T22:15:42.803Z,28.60
2019-03-05T22:18:24.628Z,31.13
2019-03-05T22:21:13.542Z,24.53
2019-03-05T22:24:02.377Z,27.40
2019-03-05T22:26:51.238Z,23.70
2019-03-05T22:29:40.092Z,24.43
2019-03-05T22:32:28.889Z,30.63
2019-03-05T22:35:37.580Z,26.87
2019-03-05T22:38:26.412Z,32.43
2019-03-05T22:41:15.273Z,33.42
2019-03-05T22:44:04.107Z,27.97
2019-03-05T22:47:12.050Z,28.10
2019-03-05T22:50:00.866Z,29.60
2019-03-05T22:52:42.942Z,40.20
2019-03-05T22:55:32.148Z,28.83
2019-03-05T22:58:20.981Z,26.10
2019-03-05T23:01:29.185Z,26.80
2019-03-05T23:04:38.979Z,33.97
2019-03-05T23:07:27.978Z,36.10
2019-03-05T23:10:37.739Z,28.17
2019-03-05T23:16:36.268Z,29.47
2019-03-05T23:19:18.361Z,36.40
2019-03-05T23:22:07.208Z,33.73
2019-03-05T23:24:56.069Z,37.70
2019-03-05T23:27:44.911Z,35.13
2019-03-05T23:30:33.734Z,38.60
2019-03-05T23:33:22.547Z,39.93
2019-03-05T23:36:11.476Z,40.30
2019-03-05T23:39:00.292Z,26.30
2019-03-05T23:41:49.225Z,29.70
2019-03-05T23:44:38.119Z,38.90
2019-03-05T23:50:42.143Z,52.50
2019-03-05T23:53:23.450Z,40.13
2019-03-05T23:56:12.273Z,30.57
2019-03-05T23:59:01.095Z,39.80
